^^
Meteo Knjazevac Station Historical Data
Daily Summary for February 2, 2021 Units:  Both    English   Metric
Daily Weekly Monthly Yearly Custom
  High: Low: Average:
Temperature: 70.2 °F /  21.2 °C 47.3 °F /  8.5 °C 59.2 °F /  15.1 °C
Dew Point: 57.7 °F /  14.3 °C 46.2 °F /  7.9 °C 51.8 °F /  11 °C
Humidity: 99% 54% 79%
Wind Speed: 9mph /  14.5km/h - 3mph /  4.8km/h
Wind Gust: 20mph /  32.2km/h - -
Wind- - SSW
Pressure: 30.19 in /  1022.2 hPa 30.11 in /  1019.5 hPa -
Precipitation: 0.00 in /  0 mm    
Historical Graphs
 
 
Tabular Data for February 2, 2021
Time Temperature Dew Point Pressure Wind Wind Speed Wind Gust Humidity Rainfall Rate (Hourly) solar Conditions
00:00 51.8 °F /  11 °C 51.5 °F /  10.8 °C 30.11in /  1019.5hPa ESE 3mph /  4.8km/h 7mph /  11.3km/h 99% 0.00in /  0mm 0 W/m2
00:10 51.7 °F /  10.9 °C 51.5 °F /  10.8 °C 30.11in /  1019.5hPa SE 2mph /  3.2km/h 5mph /  8km/h 99% 0.00in /  0mm 0 W/m2
00:20 51.6 °F /  10.9 °C 51.3 °F /  10.7 °C 30.11in /  1019.5hPa SE 1mph /  1.6km/h 4mph /  6.4km/h 99% 0.00in /  0mm 0 W/m2
00:30 51.6 °F /  10.9 °C 51.3 °F /  10.7 °C 30.11in /  1019.5hPa SE 1mph /  1.6km/h 5mph /  8km/h 99% 0.00in /  0mm 0 W/m2
00:40 51.4 °F /  10.8 °C 51.2 °F /  10.7 °C 30.11in /  1019.5hPa SE 3mph /  4.8km/h 6mph /  9.7km/h 99% 0.00in /  0mm 0 W/m2
00:50 51.4 °F /  10.8 °C 51.2 °F /  10.7 °C 30.11in /  1019.5hPa SE 1mph /  1.6km/h 5mph /  8km/h 99% 0.00in /  0mm 0 W/m2
01:00 51.4 °F /  10.8 °C 51.2 °F /  10.7 °C 30.11in /  1019.5hPa SE 3mph /  4.8km/h 6mph /  9.7km/h 99% 0.00in /  0mm 0 W/m2
01:10 51.4 °F /  10.8 °C 51.2 °F /  10.7 °C 30.11in /  1019.5hPa ESE 1mph /  1.6km/h 5mph /  8km/h 99% 0.00in /  0mm 0 W/m2
01:20 51.4 °F /  10.8 °C 51.2 °F /  10.7 °C 30.11in /  1019.5hPa East 2mph /  3.2km/h 4mph /  6.4km/h 99% 0.00in /  0mm 0 W/m2
01:30 51.4 °F /  10.8 °C 51.2 °F /  10.7 °C 30.11in /  1019.5hPa East 1mph /  1.6km/h 5mph /  8km/h 99% 0.00in /  0mm 0 W/m2
01:40 51.4 °F /  10.8 °C 51.2 °F /  10.7 °C 30.11in /  1019.5hPa East 2mph /  3.2km/h 5mph /  8km/h 99% 0.00in /  0mm 0 W/m2
01:50 51.4 °F /  10.8 °C 51.2 °F /  10.7 °C 30.11in /  1019.5hPa ESE 1mph /  1.6km/h 5mph /  8km/h 99% 0.00in /  0mm 0 W/m2
02:00 51.3 °F /  10.7 °C 51 °F /  10.6 °C 30.11in /  1019.5hPa ESE 2mph /  3.2km/h 5mph /  8km/h 99% 0.00in /  0mm 0 W/m2
02:10 51.3 °F /  10.7 °C 51 °F /  10.6 °C 30.11in /  1019.5hPa SE 2mph /  3.2km/h 4mph /  6.4km/h 99% 0.00in /  0mm 0 W/m2
02:20 51.1 °F /  10.6 °C 50.8 °F /  10.4 °C 30.11in /  1019.5hPa ESE 1mph /  1.6km/h 5mph /  8km/h 99% 0.00in /  0mm 0 W/m2
02:30 51.1 °F /  10.6 °C 50.8 °F /  10.4 °C 30.11in /  1019.5hPa SE 1mph /  1.6km/h 5mph /  8km/h 99% 0.00in /  0mm 0 W/m2
02:40 51.1 °F /  10.6 °C 50.8 °F /  10.4 °C 30.11in /  1019.5hPa SE 2mph /  3.2km/h 5mph /  8km/h 99% 0.00in /  0mm 0 W/m2
02:50 51.1 °F /  10.6 °C 50.8 °F /  10.4 °C 30.11in /  1019.5hPa SE 1mph /  1.6km/h 3mph /  4.8km/h 99% 0.00in /  0mm 0 W/m2
03:00 50.9 °F /  10.5 °C 50.6 °F /  10.3 °C 30.12in /  1019.9hPa Calm   3mph /  4.8km/h 99% 0.00in /  0mm 0 W/m2
03:10 50.7 °F /  10.4 °C 50.4 °F /  10.2 °C 30.12in /  1019.9hPa Calm   2mph /  3.2km/h 99% 0.00in /  0mm 0 W/m2
03:20 50.5 °F /  10.3 °C 50.3 °F /  10.2 °C 30.12in /  1019.9hPa Calm   2mph /  3.2km/h 99% 0.00in /  0mm 0 W/m2
03:30 50.4 °F /  10.2 °C 50.1 °F /  10.1 °C 30.12in /  1019.9hPa Calm   2mph /  3.2km/h 99% 0.00in /  0mm 0 W/m2
03:40 50.2 °F /  10.1 °C 49.9 °F /  9.9 °C 30.11in /  1019.5hPa Calm   6mph /  9.7km/h 99% 0.00in /  0mm 0 W/m2
03:50 50 °F /  10 °C 49.7 °F /  9.8 °C 30.12in /  1019.9hPa Calm   3mph /  4.8km/h 99% 0.00in /  0mm 0 W/m2
04:00 49.6 °F /  9.8 °C 49.4 °F /  9.7 °C 30.12in /  1019.9hPa SW 1mph /  1.6km/h 2mph /  3.2km/h 99% 0.00in /  0mm 0 W/m2
04:10 49.5 °F /  9.7 °C 49.2 °F /  9.6 °C 30.12in /  1019.9hPa Calm   2mph /  3.2km/h 99% 0.00in /  0mm 0 W/m2
04:20 49.1 °F /  9.5 °C 48.8 °F /  9.3 °C 30.12in /  1019.9hPa SE 2mph /  3.2km/h 3mph /  4.8km/h 99% 0.00in /  0mm 0 W/m2
04:30 48.9 °F /  9.4 °C 48.7 °F /  9.3 °C 30.12in /  1019.9hPa Calm   4mph /  6.4km/h 99% 0.00in /  0mm 0 W/m2
04:40 48.6 °F /  9.2 °C 48.3 °F /  9.1 °C 30.12in /  1019.9hPa SW 1mph /  1.6km/h 2mph /  3.2km/h 99% 0.00in /  0mm 0 W/m2
04:50 48.4 °F /  9.1 °C 48.1 °F /  8.9 °C 30.13in /  1020.2hPa West 1mph /  1.6km/h 2mph /  3.2km/h 99% 0.00in /  0mm 0 W/m2
05:00 48 °F /  8.9 °C 47.8 °F /  8.8 °C 30.13in /  1020.2hPa SSW 1mph /  1.6km/h 3mph /  4.8km/h 99% 0.00in /  0mm 6 W/m2
05:10 47.8 °F /  8.8 °C 47.6 °F /  8.7 °C 30.13in /  1020.2hPa Calm   3mph /  4.8km/h 99% 0.00in /  0mm 13 W/m2
05:20 47.7 °F /  8.7 °C 47.4 °F /  8.6 °C 30.13in /  1020.2hPa North 1mph /  1.6km/h 2mph /  3.2km/h 99% 0.00in /  0mm 23 W/m2
05:30 47.5 °F /  8.6 °C 47.2 °F /  8.4 °C 30.13in /  1020.2hPa Calm   2mph /  3.2km/h 99% 0.00in /  0mm 34 W/m2
05:40 47.3 °F /  8.5 °C 47 °F /  8.3 °C 30.13in /  1020.2hPa Calm   1mph /  1.6km/h 99% 0.00in /  0mm 43 W/m2
05:50 47.3 °F /  8.5 °C 47 °F /  8.3 °C 30.14in /  1020.5hPa East 2mph /  3.2km/h 4mph /  6.4km/h 99% 0.00in /  0mm 74 W/m2
06:00 47.5 °F /  8.6 °C 47.2 °F /  8.4 °C 30.14in /  1020.5hPa East 2mph /  3.2km/h 4mph /  6.4km/h 99% 0.00in /  0mm 94 W/m2
06:10 47.7 °F /  8.7 °C 47.4 °F /  8.6 °C 30.14in /  1020.5hPa Calm   3mph /  4.8km/h 99% 0.00in /  0mm 119 W/m2
06:20 48 °F /  8.9 °C 47.7 °F /  8.7 °C 30.14in /  1020.5hPa SE 2mph /  3.2km/h 4mph /  6.4km/h 99% 0.00in /  0mm 146 W/m2
06:30 48.4 °F /  9.1 °C 48.1 °F /  8.9 °C 30.15in /  1020.9hPa SSE 1mph /  1.6km/h 5mph /  8km/h 99% 0.00in /  0mm 173 W/m2
06:40 48.6 °F /  9.2 °C 48.3 °F /  9.1 °C 30.15in /  1020.9hPa East 1mph /  1.6km/h 5mph /  8km/h 99% 0.00in /  0mm 165 W/m2
06:50 49.1 °F /  9.5 °C 48.8 °F /  9.3 °C 30.15in /  1020.9hPa ESE 3mph /  4.8km/h 7mph /  11.3km/h 99% 0.00in /  0mm 189 W/m2
07:00 49.6 °F /  9.8 °C 49.4 °F /  9.7 °C 30.15in /  1020.9hPa East 3mph /  4.8km/h 6mph /  9.7km/h 99% 0.00in /  0mm 225 W/m2
07:10 50.2 °F /  10.1 °C 49.9 °F /  9.9 °C 30.15in /  1020.9hPa ESE 2mph /  3.2km/h 6mph /  9.7km/h 99% 0.00in /  0mm 260 W/m2
07:20 50.5 °F /  10.3 °C 50.3 °F /  10.2 °C 30.15in /  1020.9hPa SE 1mph /  1.6km/h 5mph /  8km/h 99% 0.00in /  0mm 305 W/m2
07:30 51.2 °F /  10.7 °C 51 °F /  10.6 °C 30.15in /  1020.9hPa SE 3mph /  4.8km/h 5mph /  8km/h 99% 0.00in /  0mm 344 W/m2
07:40 51.8 °F /  11 °C 51.5 °F /  10.8 °C 30.15in /  1020.9hPa ESE 5mph /  8km/h 8mph /  12.9km/h 99% 0.00in /  0mm 383 W/m2
07:50 52.5 °F /  11.4 °C 52.2 °F /  11.2 °C 30.15in /  1020.9hPa ESE 5mph /  8km/h 7mph /  11.3km/h 99% 0.00in /  0mm 425 W/m2
08:00 53.2 °F /  11.8 °C 52.9 °F /  11.6 °C 30.15in /  1020.9hPa ESE 3mph /  4.8km/h 7mph /  11.3km/h 99% 0.00in /  0mm 455 W/m2
08:10 53.9 °F /  12.2 °C 53.4 °F /  11.9 °C 30.15in /  1020.9hPa SE 2mph /  3.2km/h 7mph /  11.3km/h 98% 0.00in /  0mm 498 W/m2
08:20 54.5 °F /  12.5 °C 53.4 °F /  11.9 °C 30.15in /  1020.9hPa SE 3mph /  4.8km/h 7mph /  11.3km/h 96% 0.00in /  0mm 535 W/m2
08:30 55.2 °F /  12.9 °C 54.1 °F /  12.3 °C 30.15in /  1020.9hPa SE 2mph /  3.2km/h 6mph /  9.7km/h 96% 0.00in /  0mm 569 W/m2
08:40 56.1 °F /  13.4 °C 54.4 °F /  12.4 °C 30.15in /  1020.9hPa SSE 2mph /  3.2km/h 8mph /  12.9km/h 94% 0.00in /  0mm 604 W/m2
09:00 59 °F /  15 °C 56.4 °F /  13.6 °C 30.15in /  1020.9hPa SE 3mph /  4.8km/h 7mph /  11.3km/h 91% 0.00in /  0mm 666 W/m2
09:10 60.3 °F /  15.7 °C 56.1 °F /  13.4 °C 30.15in /  1020.9hPa SSE 3mph /  4.8km/h 6mph /  9.7km/h 86% 0.00in /  0mm 695 W/m2
09:20 61.5 °F /  16.4 °C 56.9 °F /  13.8 °C 30.15in /  1020.9hPa SE 3mph /  4.8km/h 6mph /  9.7km/h 85% 0.00in /  0mm 723 W/m2
09:30 62.4 °F /  16.9 °C 56.5 °F /  13.6 °C 30.15in /  1020.9hPa Calm   7mph /  11.3km/h 81% 0.00in /  0mm 748 W/m2
09:40 63.3 °F /  17.4 °C 57.4 °F /  14.1 °C 30.15in /  1020.9hPa Calm   7mph /  11.3km/h 81% 0.00in /  0mm 772 W/m2
09:50 64.2 °F /  17.9 °C 57.2 °F /  14 °C 30.15in /  1020.9hPa South 1mph /  1.6km/h 6mph /  9.7km/h 78% 0.00in /  0mm 794 W/m2
10:00 64.9 °F /  18.3 °C 56.8 °F /  13.8 °C 30.15in /  1020.9hPa SE 3mph /  4.8km/h 7mph /  11.3km/h 75% 0.00in /  0mm 815 W/m2
10:10 65.8 °F /  18.8 °C 57.7 °F /  14.3 °C 30.14in /  1020.5hPa East 3mph /  4.8km/h 5mph /  8km/h 75% 0.00in /  0mm 318 W/m2
10:20 65.1 °F /  18.4 °C 56.6 °F /  13.7 °C 30.14in /  1020.5hPa East 1mph /  1.6km/h 6mph /  9.7km/h 74% 0.00in /  0mm 236 W/m2
10:30 64.8 °F /  18.2 °C 55.9 °F /  13.3 °C 30.15in /  1020.9hPa WNW 2mph /  3.2km/h 6mph /  9.7km/h 73% 0.00in /  0mm 871 W/m2
10:40 64.9 °F /  18.3 °C 55.7 °F /  13.2 °C 30.14in /  1020.5hPa NNE 1mph /  1.6km/h 6mph /  9.7km/h 72% 0.00in /  0mm 315 W/m2
10:50 65.3 °F /  18.5 °C 56.8 °F /  13.8 °C 30.14in /  1020.5hPa NNW 1mph /  1.6km/h 5mph /  8km/h 74% 0.00in /  0mm 258 W/m2
11:00 64.9 °F /  18.3 °C 56.1 °F /  13.4 °C 30.14in /  1020.5hPa West 6mph /  9.7km/h 9mph /  14.5km/h 73% 0.00in /  0mm 288 W/m2
11:10 64.6 °F /  18.1 °C 55.7 °F /  13.2 °C 30.14in /  1020.5hPa West 3mph /  4.8km/h 9mph /  14.5km/h 73% 0.00in /  0mm 144 W/m2
11:20 64.2 °F /  17.9 °C 55.4 °F /  13 °C 30.14in /  1020.5hPa WNW 3mph /  4.8km/h 10mph /  16.1km/h 73% 0.00in /  0mm 292 W/m2
11:30 64.9 °F /  18.3 °C 56.1 °F /  13.4 °C 30.14in /  1020.5hPa West 7mph /  11.3km/h 13mph /  20.9km/h 73% 0.00in /  0mm 921 W/m2
11:40 65.7 °F /  18.7 °C 56.4 °F /  13.6 °C 30.14in /  1020.5hPa WNW 7mph /  11.3km/h 15mph /  24.1km/h 72% 0.00in /  0mm 377 W/m2
11:50 65.5 °F /  18.6 °C 56.2 °F /  13.4 °C 30.14in /  1020.5hPa West 3mph /  4.8km/h 12mph /  19.3km/h 72% 0.00in /  0mm 409 W/m2
12:20 66.5 °F /  19.2 °C 55.7 °F /  13.2 °C 30.14in /  1020.5hPa West 5mph /  8km/h 13mph /  20.9km/h 68% 0.00in /  0mm 403 W/m2
12:30 67.1 °F /  19.5 °C 54.9 °F /  12.7 °C 30.14in /  1020.5hPa West 7mph /  11.3km/h 13mph /  20.9km/h 65% 0.00in /  0mm 503 W/m2
12:40 67.8 °F /  19.9 °C 55.6 °F /  13.1 °C 30.14in /  1020.5hPa West 8mph /  12.9km/h 14mph /  22.5km/h 65% 0.00in /  0mm 584 W/m2
12:50 68.2 °F /  20.1 °C 55.5 °F /  13.1 °C 30.14in /  1020.5hPa West 7mph /  11.3km/h 13mph /  20.9km/h 64% 0.00in /  0mm 748 W/m2
13:00 68.5 °F /  20.3 °C 55 °F /  12.8 °C 30.14in /  1020.5hPa West 8mph /  12.9km/h 13mph /  20.9km/h 62% 0.00in /  0mm 963 W/m2
13:10 68.4 °F /  20.2 °C 53.9 °F /  12.2 °C 30.14in /  1020.5hPa West 7mph /  11.3km/h 13mph /  20.9km/h 60% 0.00in /  0mm 543 W/m2
13:20 68.9 °F /  20.5 °C 54 °F /  12.2 °C 30.14in /  1020.5hPa WNW 6mph /  9.7km/h 17mph /  27.4km/h 59% 0.00in /  0mm 949 W/m2
13:30 69.4 °F /  20.8 °C 54.5 °F /  12.5 °C 30.14in /  1020.5hPa West 7mph /  11.3km/h 16mph /  25.7km/h 59% 0.00in /  0mm 940 W/m2
13:40 70 °F /  21.1 °C 55 °F /  12.8 °C 30.13in /  1020.2hPa West 7mph /  11.3km/h 18mph /  29km/h 59% 0.00in /  0mm 930 W/m2
13:50 69.6 °F /  20.9 °C 53.7 °F /  12.1 °C 30.14in /  1020.5hPa WNW 9mph /  14.5km/h 20mph /  32.2km/h 57% 0.00in /  0mm 918 W/m2
14:00 69.8 °F /  21 °C 53.9 °F /  12.2 °C 30.14in /  1020.5hPa West 8mph /  12.9km/h 16mph /  25.7km/h 57% 0.00in /  0mm 262 W/m2
14:10 69.1 °F /  20.6 °C 53.2 °F /  11.8 °C 30.14in /  1020.5hPa West 8mph /  12.9km/h 14mph /  22.5km/h 57% 0.00in /  0mm 891 W/m2
14:20 69.4 °F /  20.8 °C 53.5 °F /  11.9 °C 30.13in /  1020.2hPa West 7mph /  11.3km/h 14mph /  22.5km/h 57% 0.00in /  0mm 216 W/m2
14:30 68.7 °F /  20.4 °C 52.9 °F /  11.6 °C 30.13in /  1020.2hPa West 6mph /  9.7km/h 17mph /  27.4km/h 57% 0.00in /  0mm 230 W/m2
14:40 68.7 °F /  20.4 °C 53.3 °F /  11.8 °C 30.13in /  1020.2hPa West 6mph /  9.7km/h 14mph /  22.5km/h 58% 0.00in /  0mm 839 W/m2
14:50 69.4 °F /  20.8 °C 52.1 °F /  11.2 °C 30.13in /  1020.2hPa West 9mph /  14.5km/h 17mph /  27.4km/h 54% 0.00in /  0mm 196 W/m2
15:00 69.1 °F /  20.6 °C 52.2 °F /  11.2 °C 30.14in /  1020.5hPa West 7mph /  11.3km/h 16mph /  25.7km/h 55% 0.00in /  0mm 799 W/m2
15:10 69.1 °F /  20.6 °C 53.2 °F /  11.8 °C 30.14in /  1020.5hPa West 8mph /  12.9km/h 15mph /  24.1km/h 57% 0.00in /  0mm 182 W/m2
15:20 68.7 °F /  20.4 °C 53.4 °F /  11.9 °C 30.14in /  1020.5hPa West 7mph /  11.3km/h 13mph /  20.9km/h 58% 0.00in /  0mm 754 W/m2
15:30 69.4 °F /  20.8 °C 53.5 °F /  11.9 °C 30.14in /  1020.5hPa West 5mph /  8km/h 13mph /  20.9km/h 57% 0.00in /  0mm 230 W/m2
15:40 68.7 °F /  20.4 °C 53.3 °F /  11.8 °C 30.14in /  1020.5hPa WNW 5mph /  8km/h 13mph /  20.9km/h 58% 0.00in /  0mm 168 W/m2
15:50 68.2 °F /  20.1 °C 52.4 °F /  11.3 °C 30.14in /  1020.5hPa WNW 3mph /  4.8km/h 10mph /  16.1km/h 57% 0.00in /  0mm 217 W/m2
16:00 68 °F /  20 °C 52.2 °F /  11.2 °C 30.14in /  1020.5hPa West 8mph /  12.9km/h 13mph /  20.9km/h 57% 0.00in /  0mm 191 W/m2
16:10 68.2 °F /  20.1 °C 52.8 °F /  11.6 °C 30.14in /  1020.5hPa West 5mph /  8km/h 12mph /  19.3km/h 58% 0.00in /  0mm 624 W/m2
16:20 68.2 °F /  20.1 °C 52.8 °F /  11.6 °C 30.14in /  1020.5hPa West 3mph /  4.8km/h 8mph /  12.9km/h 58% 0.00in /  0mm 213 W/m2
16:30 68.7 °F /  20.4 °C 52.9 °F /  11.6 °C 30.14in /  1020.5hPa West 7mph /  11.3km/h 14mph /  22.5km/h 57% 0.00in /  0mm 198 W/m2
16:40 69.1 °F /  20.6 °C 53.7 °F /  12.1 °C 30.14in /  1020.5hPa West 3mph /  4.8km/h 14mph /  22.5km/h 58% 0.00in /  0mm 538 W/m2
16:50 69.1 °F /  20.6 °C 52.2 °F /  11.2 °C 30.14in /  1020.5hPa WNW 8mph /  12.9km/h 16mph /  25.7km/h 55% 0.00in /  0mm 304 W/m2
17:00 68.7 °F /  20.4 °C 52.9 °F /  11.6 °C 30.14in /  1020.5hPa WNW 5mph /  8km/h 14mph /  22.5km/h 57% 0.00in /  0mm 478 W/m2
17:10 69.6 °F /  20.9 °C 53.7 °F /  12.1 °C 30.14in /  1020.5hPa West 7mph /  11.3km/h 12mph /  19.3km/h 57% 0.00in /  0mm 220 W/m2
17:20 69.3 °F /  20.7 °C 52.4 °F /  11.3 °C 30.14in /  1020.5hPa West 6mph /  9.7km/h 13mph /  20.9km/h 55% 0.00in /  0mm 184 W/m2
17:30 68.9 °F /  20.5 °C 52.1 °F /  11.2 °C 30.14in /  1020.5hPa West 9mph /  14.5km/h 14mph /  22.5km/h 55% 0.00in /  0mm 155 W/m2
17:40 69.1 °F /  20.6 °C 51.7 °F /  10.9 °C 30.14in /  1020.5hPa West 7mph /  11.3km/h 14mph /  22.5km/h 54% 0.00in /  0mm 355 W/m2
17:50 69.6 °F /  20.9 °C 52.2 °F /  11.2 °C 30.13in /  1020.2hPa West 8mph /  12.9km/h 15mph /  24.1km/h 54% 0.00in /  0mm 325 W/m2
18:00 70.2 °F /  21.2 °C 52.7 °F /  11.5 °C 30.14in /  1020.5hPa WNW 6mph /  9.7km/h 14mph /  22.5km/h 54% 0.00in /  0mm 294 W/m2
18:10 70.2 °F /  21.2 °C 52.7 °F /  11.5 °C 30.14in /  1020.5hPa West 6mph /  9.7km/h 14mph /  22.5km/h 54% 0.00in /  0mm 264 W/m2
18:20 70 °F /  21.1 °C 52.6 °F /  11.4 °C 30.14in /  1020.5hPa West 5mph /  8km/h 12mph /  19.3km/h 54% 0.00in /  0mm 232 W/m2
18:30 70 °F /  21.1 °C 52.6 °F /  11.4 °C 30.14in /  1020.5hPa WNW 6mph /  9.7km/h 12mph /  19.3km/h 54% 0.00in /  0mm 196 W/m2
18:40 69.8 °F /  21 °C 52.9 °F /  11.6 °C 30.14in /  1020.5hPa West 3mph /  4.8km/h 8mph /  12.9km/h 55% 0.00in /  0mm 167 W/m2
18:50 69.4 °F /  20.8 °C 52.1 °F /  11.2 °C 30.14in /  1020.5hPa WNW 6mph /  9.7km/h 12mph /  19.3km/h 54% 0.00in /  0mm 136 W/m2
19:00 69.2 °F /  20.7 °C 52.4 °F /  11.3 °C 30.15in /  1020.9hPa WNW 3mph /  4.8km/h 7mph /  11.3km/h 55% 0.00in /  0mm 108 W/m2
19:10 68.7 °F /  20.4 °C 52.9 °F /  11.6 °C 30.15in /  1020.9hPa WNW 1mph /  1.6km/h 6mph /  9.7km/h 57% 0.00in /  0mm 50 W/m2
19:20 68.2 °F /  20.1 °C 53.7 °F /  12.1 °C 30.15in /  1020.9hPa WNW 1mph /  1.6km/h 3mph /  4.8km/h 60% 0.00in /  0mm 50 W/m2
19:30 67.5 °F /  19.7 °C 52.6 °F /  11.4 °C 30.15in /  1020.9hPa West 1mph /  1.6km/h 5mph /  8km/h 59% 0.00in /  0mm 37 W/m2
19:40 66.7 °F /  19.3 °C 52.4 °F /  11.3 °C 30.15in /  1020.9hPa West 1mph /  1.6km/h 5mph /  8km/h 60% 0.00in /  0mm 25 W/m2
19:50 65.8 °F /  18.8 °C 51.5 °F /  10.8 °C 30.16in /  1021.2hPa West 2mph /  3.2km/h 4mph /  6.4km/h 60% 0.00in /  0mm 14 W/m2
20:00 64.8 °F /  18.2 °C 51.4 °F /  10.8 °C 30.16in /  1021.2hPa West 2mph /  3.2km/h 5mph /  8km/h 62% 0.00in /  0mm 6 W/m2
20:10 64 °F /  17.8 °C 52 °F /  11.1 °C 30.16in /  1021.2hPa WSW 2mph /  3.2km/h 5mph /  8km/h 65% 0.00in /  0mm 0 W/m2
20:20 63 °F /  17.2 °C 52.2 °F /  11.2 °C 30.16in /  1021.2hPa West 2mph /  3.2km/h 4mph /  6.4km/h 68% 0.00in /  0mm 0 W/m2
20:30 61.9 °F /  16.6 °C 51.2 °F /  10.7 °C 30.16in /  1021.2hPa West 3mph /  4.8km/h 5mph /  8km/h 68% 0.00in /  0mm 0 W/m2
20:40 61 °F /  16.1 °C 51.1 °F /  10.6 °C 30.17in /  1021.6hPa WSW 2mph /  3.2km/h 5mph /  8km/h 70% 0.00in /  0mm 0 W/m2
20:50 60.1 °F /  15.6 °C 51 °F /  10.6 °C 30.17in /  1021.6hPa WSW 2mph /  3.2km/h 5mph /  8km/h 72% 0.00in /  0mm 0 W/m2
21:00 59.3 °F /  15.2 °C 51 °F /  10.6 °C 30.17in /  1021.6hPa Calm   2mph /  3.2km/h 74% 0.00in /  0mm 0 W/m2
21:10 58.4 °F /  14.7 °C 50.5 °F /  10.3 °C 30.17in /  1021.6hPa Calm   2mph /  3.2km/h 75% 0.00in /  0mm 0 W/m2
21:20 57.7 °F /  14.3 °C 49.9 °F /  9.9 °C 30.18in /  1021.9hPa NNE 2mph /  3.2km/h 4mph /  6.4km/h 75% 0.00in /  0mm 0 W/m2
21:30 57.2 °F /  14 °C 50.1 °F /  10.1 °C 30.18in /  1021.9hPa Calm   3mph /  4.8km/h 77% 0.00in /  0mm 0 W/m2
21:40 56.7 °F /  13.7 °C 49.9 °F /  9.9 °C 30.18in /  1021.9hPa WSW 1mph /  1.6km/h 2mph /  3.2km/h 78% 0.00in /  0mm 0 W/m2
21:50 55.9 °F /  13.3 °C 49.8 °F /  9.9 °C 30.18in /  1021.9hPa West 1mph /  1.6km/h 2mph /  3.2km/h 80% 0.00in /  0mm 0 W/m2
22:00 55.2 °F /  12.9 °C 49.5 °F /  9.7 °C 30.19in /  1022.2hPa WNW 1mph /  1.6km/h 2mph /  3.2km/h 81% 0.00in /  0mm 0 W/m2
22:10 54.8 °F /  12.7 °C 48.8 °F /  9.3 °C 30.19in /  1022.2hPa WNW 2mph /  3.2km/h 3mph /  4.8km/h 80% 0.00in /  0mm 0 W/m2
22:20 54.3 °F /  12.4 °C 48.3 °F /  9.1 °C 30.19in /  1022.2hPa Calm   3mph /  4.8km/h 80% 0.00in /  0mm 0 W/m2
22:30 53.8 °F /  12.1 °C 47.8 °F /  8.8 °C 30.19in /  1022.2hPa Calm   3mph /  4.8km/h 80% 0.00in /  0mm 0 W/m2
22:40 53.2 °F /  11.8 °C 47.5 °F /  8.6 °C 30.19in /  1022.2hPa SE 1mph /  1.6km/h 4mph /  6.4km/h 81% 0.00in /  0mm 0 W/m2
22:50 52.7 °F /  11.5 °C 47 °F /  8.3 °C 30.19in /  1022.2hPa SSE 1mph /  1.6km/h 4mph /  6.4km/h 81% 0.00in /  0mm 0 W/m2
23:00 52.3 °F /  11.3 °C 47.3 °F /  8.5 °C 30.19in /  1022.2hPa SSE 1mph /  1.6km/h 2mph /  3.2km/h 83% 0.00in /  0mm 0 W/m2
23:10 52 °F /  11.1 °C 47.3 °F /  8.5 °C 30.19in /  1022.2hPa Calm   1mph /  1.6km/h 84% 0.00in /  0mm 0 W/m2
23:20 51.6 °F /  10.9 °C 47.3 °F /  8.5 °C 30.19in /  1022.2hPa Calm   2mph /  3.2km/h 85% 0.00in /  0mm 0 W/m2
23:30 51.3 °F /  10.7 °C 46.9 °F /  8.3 °C 30.19in /  1022.2hPa Calm   2mph /  3.2km/h 85% 0.00in /  0mm 0 W/m2
23:40 51 °F /  10.6 °C 47 °F /  8.3 °C 30.19in /  1022.2hPa SW 1mph /  1.6km/h 2mph /  3.2km/h 86% 0.00in /  0mm 0 W/m2
23:50 50.5 °F /  10.3 °C 46.2 °F /  7.9 °C 30.19in /  1022.2hPa SW 2mph /  3.2km/h 3mph /  4.8km/h 85% 0.00in /  0mm 0 W/m2
Knjazevac, Serbia
Compliments of Weather Underground - 2 mb